sensor_id;sensor_type;location;lat;lon;timestamp;P1;durP1;ratioP1;P2;durP2;ratioP2
61460;SDS011;47325;50.506;4.472;2022-12-15T00:04:18;36.60;;;19.80;;
61460;SDS011;47325;50.506;4.472;2022-12-15T00:10:01;37.50;;;19.30;;
61460;SDS011;47325;50.506;4.472;2022-12-15T00:15:49;32.90;;;19.40;;
61460;SDS011;47325;50.506;4.472;2022-12-15T00:21:32;35.20;;;19.90;;
61460;SDS011;47325;50.506;4.472;2022-12-15T00:27:15;35.30;;;19.80;;
61460;SDS011;47325;50.506;4.472;2022-12-15T00:32:58;34.40;;;19.40;;
61460;SDS011;47325;50.506;4.472;2022-12-15T00:38:41;37.40;;;20.20;;
61460;SDS011;47325;50.506;4.472;2022-12-15T00:44:24;36.20;;;19.10;;
61460;SDS011;47325;50.506;4.472;2022-12-15T00:50:07;35.00;;;18.90;;
61460;SDS011;47325;50.506;4.472;2022-12-15T00:55:50;36.70;;;20.00;;
61460;SDS011;47325;50.506;4.472;2022-12-15T01:01:33;38.10;;;20.60;;
61460;SDS011;47325;50.506;4.472;2022-12-15T01:07:16;37.40;;;19.70;;
61460;SDS011;47325;50.506;4.472;2022-12-15T01:12:59;36.90;;;19.80;;
61460;SDS011;47325;50.506;4.472;2022-12-15T01:18:42;37.00;;;19.40;;
61460;SDS011;47325;50.506;4.472;2022-12-15T01:24:30;39.20;;;19.70;;
61460;SDS011;47325;50.506;4.472;2022-12-15T01:30:15;36.50;;;19.40;;
61460;SDS011;47325;50.506;4.472;2022-12-15T01:36:01;40.10;;;20.10;;
61460;SDS011;47325;50.506;4.472;2022-12-15T01:41:44;36.40;;;19.40;;
61460;SDS011;47325;50.506;4.472;2022-12-15T01:47:28;37.70;;;19.80;;
61460;SDS011;47325;50.506;4.472;2022-12-15T01:53:11;37.00;;;20.40;;
61460;SDS011;47325;50.506;4.472;2022-12-15T01:58:57;37.20;;;20.20;;
61460;SDS011;47325;50.506;4.472;2022-12-15T02:04:42;36.80;;;20.40;;
61460;SDS011;47325;50.506;4.472;2022-12-15T02:10:26;41.80;;;20.00;;
61460;SDS011;47325;50.506;4.472;2022-12-15T02:16:13;37.40;;;19.50;;
61460;SDS011;47325;50.506;4.472;2022-12-15T02:22:02;38.40;;;20.20;;
61460;SDS011;47325;50.506;4.472;2022-12-15T02:27:53;40.70;;;19.80;;
61460;SDS011;47325;50.506;4.472;2022-12-15T02:33:38;38.20;;;20.40;;
61460;SDS011;47325;50.506;4.472;2022-12-15T02:39:22;35.20;;;19.60;;
61460;SDS011;47325;50.506;4.472;2022-12-15T02:45:06;37.20;;;20.40;;
61460;SDS011;47325;50.506;4.472;2022-12-15T02:50:56;42.10;;;20.40;;
61460;SDS011;47325;50.506;4.472;2022-12-15T02:56:43;42.50;;;20.80;;
61460;SDS011;47325;50.506;4.472;2022-12-15T03:02:28;38.50;;;20.40;;
61460;SDS011;47325;50.506;4.472;2022-12-15T03:08:13;38.40;;;20.30;;
61460;SDS011;47325;50.506;4.472;2022-12-15T03:13:56;40.90;;;20.50;;
61460;SDS011;47325;50.506;4.472;2022-12-15T03:19:39;38.40;;;20.70;;
61460;SDS011;47325;50.506;4.472;2022-12-15T03:25:22;39.20;;;21.20;;
61460;SDS011;47325;50.506;4.472;2022-12-15T03:31:05;39.80;;;20.90;;
61460;SDS011;47325;50.506;4.472;2022-12-15T03:36:47;39.50;;;20.70;;
61460;SDS011;47325;50.506;4.472;2022-12-15T03:42:30;41.20;;;21.50;;
61460;SDS011;47325;50.506;4.472;2022-12-15T03:48:13;41.00;;;20.90;;
61460;SDS011;47325;50.506;4.472;2022-12-15T03:53:56;39.60;;;21.00;;
61460;SDS011;47325;50.506;4.472;2022-12-15T03:59:38;39.80;;;21.20;;
61460;SDS011;47325;50.506;4.472;2022-12-15T04:05:23;39.20;;;20.90;;
61460;SDS011;47325;50.506;4.472;2022-12-15T04:11:06;37.00;;;21.20;;
61460;SDS011;47325;50.506;4.472;2022-12-15T04:16:49;42.00;;;21.80;;
61460;SDS011;47325;50.506;4.472;2022-12-15T04:22:32;40.40;;;21.60;;
61460;SDS011;47325;50.506;4.472;2022-12-15T04:28:15;41.00;;;21.30;;
61460;SDS011;47325;50.506;4.472;2022-12-15T04:33:58;38.80;;;21.40;;
61460;SDS011;47325;50.506;4.472;2022-12-15T04:39:42;38.20;;;21.20;;
61460;SDS011;47325;50.506;4.472;2022-12-15T04:45:27;46.00;;;21.70;;
61460;SDS011;47325;50.506;4.472;2022-12-15T04:51:10;42.50;;;21.70;;
61460;SDS011;47325;50.506;4.472;2022-12-15T04:56:52;40.20;;;21.70;;
61460;SDS011;47325;50.506;4.472;2022-12-15T05:02:35;42.10;;;22.10;;
61460;SDS011;47325;50.506;4.472;2022-12-15T05:08:19;38.60;;;21.90;;
61460;SDS011;47325;50.506;4.472;2022-12-15T05:14:02;39.00;;;21.60;;
61460;SDS011;47325;50.506;4.472;2022-12-15T05:19:45;44.40;;;22.00;;
61460;SDS011;47325;50.506;4.472;2022-12-15T05:25:29;42.70;;;22.10;;
61460;SDS011;47325;50.506;4.472;2022-12-15T05:31:13;46.10;;;22.90;;
61460;SDS011;47325;50.506;4.472;2022-12-15T05:36:56;41.10;;;21.80;;
61460;SDS011;47325;50.506;4.472;2022-12-15T05:42:39;39.70;;;21.90;;
61460;SDS011;47325;50.506;4.472;2022-12-15T05:48:27;40.80;;;21.70;;
61460;SDS011;47325;50.506;4.472;2022-12-15T05:54:11;42.90;;;22.80;;
61460;SDS011;47325;50.506;4.472;2022-12-15T05:59:54;42.10;;;21.60;;
61460;SDS011;47325;50.506;4.472;2022-12-15T06:05:37;38.70;;;21.40;;
61460;SDS011;47325;50.506;4.472;2022-12-15T06:11:20;42.10;;;22.40;;
61460;SDS011;47325;50.506;4.472;2022-12-15T06:17:03;39.10;;;21.60;;
61460;SDS011;47325;50.506;4.472;2022-12-15T06:22:48;43.70;;;22.90;;
61460;SDS011;47325;50.506;4.472;2022-12-15T06:28:32;40.20;;;21.60;;
61460;SDS011;47325;50.506;4.472;2022-12-15T06:34:15;42.70;;;21.70;;
61460;SDS011;47325;50.506;4.472;2022-12-15T06:39:58;39.40;;;21.70;;
61460;SDS011;47325;50.506;4.472;2022-12-15T06:45:46;39.40;;;22.00;;
61460;SDS011;47325;50.506;4.472;2022-12-15T06:51:31;48.20;;;24.00;;
61460;SDS011;47325;50.506;4.472;2022-12-15T06:57:14;43.50;;;23.80;;
61460;SDS011;47325;50.506;4.472;2022-12-15T07:02:57;40.70;;;22.60;;
61460;SDS011;47325;50.506;4.472;2022-12-15T07:08:41;40.40;;;23.00;;
61460;SDS011;47325;50.506;4.472;2022-12-15T07:14:24;43.40;;;22.20;;
61460;SDS011;47325;50.506;4.472;2022-12-15T07:20:08;42.40;;;21.00;;
61460;SDS011;47325;50.506;4.472;2022-12-15T07:25:50;40.20;;;21.50;;
61460;SDS011;47325;50.506;4.472;2022-12-15T07:31:33;39.30;;;21.90;;
61460;SDS011;47325;50.506;4.472;2022-12-15T07:37:16;40.60;;;22.40;;
61460;SDS011;47325;50.506;4.472;2022-12-15T07:42:59;40.00;;;22.00;;
61460;SDS011;47325;50.506;4.472;2022-12-15T07:48:42;37.40;;;20.90;;
61460;SDS011;47325;50.506;4.472;2022-12-15T07:54:31;46.20;;;22.70;;
61460;SDS011;47325;50.506;4.472;2022-12-15T08:00:15;42.00;;;22.60;;
61460;SDS011;47325;50.506;4.472;2022-12-15T08:06:01;47.40;;;23.20;;
61460;SDS011;47325;50.506;4.472;2022-12-15T08:11:46;47.20;;;23.40;;
61460;SDS011;47325;50.506;4.472;2022-12-15T08:17:29;45.30;;;23.50;;
61460;SDS011;47325;50.506;4.472;2022-12-15T08:23:11;41.60;;;22.70;;
61460;SDS011;47325;50.506;4.472;2022-12-15T08:28:55;47.30;;;23.60;;
61460;SDS011;47325;50.506;4.472;2022-12-15T08:34:48;43.60;;;22.80;;
61460;SDS011;47325;50.506;4.472;2022-12-15T08:40:31;44.40;;;22.70;;
61460;SDS011;47325;50.506;4.472;2022-12-15T08:46:14;41.30;;;22.50;;
61460;SDS011;47325;50.506;4.472;2022-12-15T08:51:58;45.40;;;23.80;;
61460;SDS011;47325;50.506;4.472;2022-12-15T08:57:42;44.30;;;23.30;;
61460;SDS011;47325;50.506;4.472;2022-12-15T09:03:25;43.10;;;23.30;;
61460;SDS011;47325;50.506;4.472;2022-12-15T09:09:09;46.50;;;23.40;;
61460;SDS011;47325;50.506;4.472;2022-12-15T09:14:53;42.40;;;22.90;;
61460;SDS011;47325;50.506;4.472;2022-12-15T09:20:35;42.50;;;23.10;;
61460;SDS011;47325;50.506;4.472;2022-12-15T09:26:19;42.40;;;23.80;;
61460;SDS011;47325;50.506;4.472;2022-12-15T09:32:02;42.50;;;23.40;;
61460;SDS011;47325;50.506;4.472;2022-12-15T09:37:55;43.20;;;23.30;;
61460;SDS011;47325;50.506;4.472;2022-12-15T09:43:38;44.90;;;23.80;;
61460;SDS011;47325;50.506;4.472;2022-12-15T09:49:35;46.60;;;24.50;;
61460;SDS011;47325;50.506;4.472;2022-12-15T09:55:22;45.50;;;24.50;;
61460;SDS011;47325;50.506;4.472;2022-12-15T10:01:06;43.20;;;22.90;;
61460;SDS011;47325;50.506;4.472;2022-12-15T10:06:55;40.80;;;23.00;;
61460;SDS011;47325;50.506;4.472;2022-12-15T10:12:39;44.20;;;23.80;;
61460;SDS011;47325;50.506;4.472;2022-12-15T10:18:45;44.00;;;24.70;;
61460;SDS011;47325;50.506;4.472;2022-12-15T10:24:41;42.50;;;24.40;;
61460;SDS011;47325;50.506;4.472;2022-12-15T10:30:44;41.70;;;23.80;;
61460;SDS011;47325;50.506;4.472;2022-12-15T10:36:33;45.70;;;24.10;;
61460;SDS011;47325;50.506;4.472;2022-12-15T10:42:17;42.60;;;24.20;;
61460;SDS011;47325;50.506;4.472;2022-12-15T10:48:03;40.80;;;23.20;;
61460;SDS011;47325;50.506;4.472;2022-12-15T10:53:47;43.90;;;23.30;;
61460;SDS011;47325;50.506;4.472;2022-12-15T10:59:32;39.70;;;22.80;;
61460;SDS011;47325;50.506;4.472;2022-12-15T11:05:17;38.50;;;22.60;;
61460;SDS011;47325;50.506;4.472;2022-12-15T11:11:00;38.90;;;22.90;;
61460;SDS011;47325;50.506;4.472;2022-12-15T11:16:49;42.30;;;22.90;;
61460;SDS011;47325;50.506;4.472;2022-12-15T11:22:36;42.80;;;23.50;;
61460;SDS011;47325;50.506;4.472;2022-12-15T11:28:23;44.00;;;23.50;;
61460;SDS011;47325;50.506;4.472;2022-12-15T11:34:13;40.40;;;22.60;;
61460;SDS011;47325;50.506;4.472;2022-12-15T11:40:03;38.10;;;22.30;;
61460;SDS011;47325;50.506;4.472;2022-12-15T11:45:53;39.00;;;22.00;;
61460;SDS011;47325;50.506;4.472;2022-12-15T11:51:40;36.90;;;21.70;;
61460;SDS011;47325;50.506;4.472;2022-12-15T11:57:38;35.00;;;21.10;;
61460;SDS011;47325;50.506;4.472;2022-12-15T12:03:25;37.20;;;20.10;;
61460;SDS011;47325;50.506;4.472;2022-12-15T12:09:16;34.40;;;20.40;;
61460;SDS011;47325;50.506;4.472;2022-12-15T12:15:06;37.00;;;20.40;;
61460;SDS011;47325;50.506;4.472;2022-12-15T12:20:55;32.40;;;19.40;;
61460;SDS011;47325;50.506;4.472;2022-12-15T12:26:40;34.40;;;20.00;;
61460;SDS011;47325;50.506;4.472;2022-12-15T12:32:32;33.20;;;19.10;;
61460;SDS011;47325;50.506;4.472;2022-12-15T12:38:19;34.50;;;19.00;;
61460;SDS011;47325;50.506;4.472;2022-12-15T12:44:08;29.40;;;17.70;;
61460;SDS011;47325;50.506;4.472;2022-12-15T12:49:53;30.60;;;18.20;;
61460;SDS011;47325;50.506;4.472;2022-12-15T12:55:39;29.40;;;17.10;;
61460;SDS011;47325;50.506;4.472;2022-12-15T13:01:29;29.20;;;16.70;;
61460;SDS011;47325;50.506;4.472;2022-12-15T13:19:02;25.20;;;15.40;;
61460;SDS011;47325;50.506;4.472;2022-12-15T13:24:49;25.30;;;15.20;;
61460;SDS011;47325;50.506;4.472;2022-12-15T13:30:32;25.50;;;14.60;;
61460;SDS011;47325;50.506;4.472;2022-12-15T13:36:18;24.40;;;14.40;;
61460;SDS011;47325;50.506;4.472;2022-12-15T13:48:34;23.70;;;13.40;;
61460;SDS011;47325;50.506;4.472;2022-12-15T13:54:20;21.20;;;13.50;;
61460;SDS011;47325;50.506;4.472;2022-12-15T14:00:05;21.70;;;13.10;;
61460;SDS011;47325;50.506;4.472;2022-12-15T14:05:55;21.60;;;12.00;;
61460;SDS011;47325;50.506;4.472;2022-12-15T14:11:43;21.10;;;12.40;;
61460;SDS011;47325;50.506;4.472;2022-12-15T14:17:34;21.30;;;12.50;;
61460;SDS011;47325;50.506;4.472;2022-12-15T14:23:21;19.70;;;11.90;;
61460;SDS011;47325;50.506;4.472;2022-12-15T14:29:04;17.40;;;11.10;;
61460;SDS011;47325;50.506;4.472;2022-12-15T14:34:47;19.90;;;11.90;;
61460;SDS011;47325;50.506;4.472;2022-12-15T14:40:32;18.80;;;11.40;;
61460;SDS011;47325;50.506;4.472;2022-12-15T14:46:17;19.20;;;11.40;;
61460;SDS011;47325;50.506;4.472;2022-12-15T14:52:02;18.90;;;11.40;;
61460;SDS011;47325;50.506;4.472;2022-12-15T14:57:50;20.10;;;10.90;;
61460;SDS011;47325;50.506;4.472;2022-12-15T15:03:38;18.90;;;11.40;;
61460;SDS011;47325;50.506;4.472;2022-12-15T15:09:23;18.80;;;11.30;;
61460;SDS011;47325;50.506;4.472;2022-12-15T15:15:10;17.20;;;11.70;;
61460;SDS011;47325;50.506;4.472;2022-12-15T15:20:58;18.10;;;10.80;;
61460;SDS011;47325;50.506;4.472;2022-12-15T15:26:41;21.20;;;11.60;;
61460;SDS011;47325;50.506;4.472;2022-12-15T15:32:25;17.40;;;10.70;;
61460;SDS011;47325;50.506;4.472;2022-12-15T15:38:10;18.50;;;11.60;;
61460;SDS011;47325;50.506;4.472;2022-12-15T15:43:54;18.60;;;11.30;;
61460;SDS011;47325;50.506;4.472;2022-12-15T15:49:37;18.90;;;11.90;;
61460;SDS011;47325;50.506;4.472;2022-12-15T15:55:23;19.80;;;11.60;;
61460;SDS011;47325;50.506;4.472;2022-12-15T16:01:07;21.90;;;12.20;;
61460;SDS011;47325;50.506;4.472;2022-12-15T16:06:55;20.90;;;12.20;;
61460;SDS011;47325;50.506;4.472;2022-12-15T16:12:39;19.70;;;11.90;;
61460;SDS011;47325;50.506;4.472;2022-12-15T16:18:23;19.40;;;12.10;;
61460;SDS011;47325;50.506;4.472;2022-12-15T16:24:08;21.40;;;12.50;;
61460;SDS011;47325;50.506;4.472;2022-12-15T16:29:52;21.20;;;12.80;;
61460;SDS011;47325;50.506;4.472;2022-12-15T16:35:35;23.50;;;13.70;;
61460;SDS011;47325;50.506;4.472;2022-12-15T16:41:18;23.30;;;14.00;;
61460;SDS011;47325;50.506;4.472;2022-12-15T16:47:01;22.30;;;13.50;;
61460;SDS011;47325;50.506;4.472;2022-12-15T16:52:46;24.70;;;14.60;;
61460;SDS011;47325;50.506;4.472;2022-12-15T16:58:30;26.80;;;15.40;;
61460;SDS011;47325;50.506;4.472;2022-12-15T17:04:15;25.20;;;15.10;;
61460;SDS011;47325;50.506;4.472;2022-12-15T17:09:59;26.30;;;15.30;;
61460;SDS011;47325;50.506;4.472;2022-12-15T17:15:42;23.60;;;15.40;;
61460;SDS011;47325;50.506;4.472;2022-12-15T17:21:26;26.20;;;15.60;;
61460;SDS011;47325;50.506;4.472;2022-12-15T17:27:10;24.40;;;15.80;;
61460;SDS011;47325;50.506;4.472;2022-12-15T17:32:58;32.60;;;17.30;;
61460;SDS011;47325;50.506;4.472;2022-12-15T17:38:41;41.90;;;21.50;;
61460;SDS011;47325;50.506;4.472;2022-12-15T17:44:25;42.60;;;24.50;;
61460;SDS011;47325;50.506;4.472;2022-12-15T17:50:18;41.10;;;23.10;;
61460;SDS011;47325;50.506;4.472;2022-12-15T17:56:01;38.40;;;21.90;;
61460;SDS011;47325;50.506;4.472;2022-12-15T18:01:44;37.90;;;21.70;;
61460;SDS011;47325;50.506;4.472;2022-12-15T18:07:28;38.30;;;21.30;;
61460;SDS011;47325;50.506;4.472;2022-12-15T18:13:16;36.00;;;21.00;;
61460;SDS011;47325;50.506;4.472;2022-12-15T18:18:58;35.20;;;20.50;;
61460;SDS011;47325;50.506;4.472;2022-12-15T18:24:43;36.00;;;20.10;;
61460;SDS011;47325;50.506;4.472;2022-12-15T18:30:27;35.90;;;20.20;;
61460;SDS011;47325;50.506;4.472;2022-12-15T18:36:11;35.90;;;20.00;;
61460;SDS011;47325;50.506;4.472;2022-12-15T18:41:54;33.90;;;18.70;;
61460;SDS011;47325;50.506;4.472;2022-12-15T18:47:38;32.10;;;18.70;;
61460;SDS011;47325;50.506;4.472;2022-12-15T18:53:22;31.00;;;17.80;;
61460;SDS011;47325;50.506;4.472;2022-12-15T18:59:08;30.50;;;18.00;;
61460;SDS011;47325;50.506;4.472;2022-12-15T19:04:54;30.40;;;17.80;;
61460;SDS011;47325;50.506;4.472;2022-12-15T19:10:38;33.00;;;17.90;;
61460;SDS011;47325;50.506;4.472;2022-12-15T19:16:21;31.10;;;17.80;;
61460;SDS011;47325;50.506;4.472;2022-12-15T19:22:06;29.10;;;17.50;;
61460;SDS011;47325;50.506;4.472;2022-12-15T19:27:50;29.50;;;17.80;;
61460;SDS011;47325;50.506;4.472;2022-12-15T19:33:34;28.40;;;17.30;;
61460;SDS011;47325;50.506;4.472;2022-12-15T19:39:18;27.50;;;16.90;;
61460;SDS011;47325;50.506;4.472;2022-12-15T19:45:05;30.00;;;17.40;;
61460;SDS011;47325;50.506;4.472;2022-12-15T19:50:52;31.10;;;18.30;;
61460;SDS011;47325;50.506;4.472;2022-12-15T19:56:36;32.20;;;17.60;;
61460;SDS011;47325;50.506;4.472;2022-12-15T20:02:19;29.80;;;17.30;;
61460;SDS011;47325;50.506;4.472;2022-12-15T20:08:03;29.20;;;16.60;;
61460;SDS011;47325;50.506;4.472;2022-12-15T20:13:46;29.00;;;16.90;;
61460;SDS011;47325;50.506;4.472;2022-12-15T20:19:30;30.30;;;17.40;;
61460;SDS011;47325;50.506;4.472;2022-12-15T20:25:18;31.80;;;17.20;;
61460;SDS011;47325;50.506;4.472;2022-12-15T20:31:01;29.20;;;17.00;;
61460;SDS011;47325;50.506;4.472;2022-12-15T20:36:44;31.40;;;18.20;;
61460;SDS011;47325;50.506;4.472;2022-12-15T20:42:27;30.60;;;17.30;;
61460;SDS011;47325;50.506;4.472;2022-12-15T20:48:11;28.50;;;16.80;;
61460;SDS011;47325;50.506;4.472;2022-12-15T20:53:56;29.80;;;17.30;;
61460;SDS011;47325;50.506;4.472;2022-12-15T20:59:40;30.10;;;17.40;;
61460;SDS011;47325;50.506;4.472;2022-12-15T21:05:25;29.60;;;17.00;;
61460;SDS011;47325;50.506;4.472;2022-12-15T21:11:11;30.20;;;16.50;;
61460;SDS011;47325;50.506;4.472;2022-12-15T21:16:56;28.80;;;17.00;;
61460;SDS011;47325;50.506;4.472;2022-12-15T21:22:39;28.50;;;16.70;;
61460;SDS011;47325;50.506;4.472;2022-12-15T21:28:24;26.60;;;16.10;;
61460;SDS011;47325;50.506;4.472;2022-12-15T21:34:07;29.00;;;16.10;;
61460;SDS011;47325;50.506;4.472;2022-12-15T21:39:51;26.40;;;15.70;;
61460;SDS011;47325;50.506;4.472;2022-12-15T21:45:35;28.30;;;16.70;;
61460;SDS011;47325;50.506;4.472;2022-12-15T21:51:17;30.20;;;16.40;;
61460;SDS011;47325;50.506;4.472;2022-12-15T21:57:01;29.80;;;16.60;;
61460;SDS011;47325;50.506;4.472;2022-12-15T22:02:44;29.60;;;16.60;;
61460;SDS011;47325;50.506;4.472;2022-12-15T22:08:27;30.50;;;16.10;;
61460;SDS011;47325;50.506;4.472;2022-12-15T22:14:18;28.30;;;17.00;;
61460;SDS011;47325;50.506;4.472;2022-12-15T22:20:04;29.40;;;17.30;;
61460;SDS011;47325;50.506;4.472;2022-12-15T22:25:48;33.10;;;17.70;;
61460;SDS011;47325;50.506;4.472;2022-12-15T22:31:35;32.10;;;17.80;;
61460;SDS011;47325;50.506;4.472;2022-12-15T22:37:18;31.00;;;18.00;;
61460;SDS011;47325;50.506;4.472;2022-12-15T22:43:01;31.40;;;17.70;;
61460;SDS011;47325;50.506;4.472;2022-12-15T22:48:44;33.00;;;18.00;;
61460;SDS011;47325;50.506;4.472;2022-12-15T22:54:29;34.00;;;18.80;;
61460;SDS011;47325;50.506;4.472;2022-12-15T23:00:14;30.80;;;18.70;;
61460;SDS011;47325;50.506;4.472;2022-12-15T23:05:58;35.10;;;19.10;;
61460;SDS011;47325;50.506;4.472;2022-12-15T23:11:41;32.40;;;19.50;;
61460;SDS011;47325;50.506;4.472;2022-12-15T23:17:24;34.00;;;19.10;;
61460;SDS011;47325;50.506;4.472;2022-12-15T23:23:07;33.90;;;18.70;;
61460;SDS011;47325;50.506;4.472;2022-12-15T23:28:50;34.80;;;18.70;;
61460;SDS011;47325;50.506;4.472;2022-12-15T23:34:37;35.00;;;18.70;;
61460;SDS011;47325;50.506;4.472;2022-12-15T23:40:19;32.90;;;19.20;;
61460;SDS011;47325;50.506;4.472;2022-12-15T23:46:03;31.90;;;19.50;;
61460;SDS011;47325;50.506;4.472;2022-12-15T23:51:48;34.50;;;19.40;;
61460;SDS011;47325;50.506;4.472;2022-12-15T23:57:34;30.90;;;18.60;;
